Time;durP1;ratioP1;P1;durP2;ratioP2;P2;SDS_P1;SDS_P2;PMS_P1;PMS_P2;Temp;Humidity;BMP_temperature;BMP_pressure;BME280_temperature;BME280_humidity;BME280_pressure;Samples;Min_cycle;Max_cycle;Signal;HPM_P1;HPM_P2
2021/07/07 00:01:32;;;;;;;9.18;4.15;;;22.90;67.40;;;;;;5051292;28;20411;-79
2021/07/07 00:03:57;;;;;;;6.80;4.43;;;22.80;67.40;;;;;;5050525;28;20099;-77
2021/07/07 00:06:23;;;;;;;5.10;3.70;;;22.80;67.60;;;;;;5051235;28;20044;-76
2021/07/07 00:08:48;;;;;;;11.60;4.03;;;22.80;67.60;;;;;;5069313;28;20027;-75
2021/07/07 00:11:14;;;;;;;10.60;4.70;;;22.80;67.70;;;;;;5069279;28;20042;-77
2021/07/07 00:13:40;;;;;;;7.63;4.18;;;22.70;68.00;;;;;;5069157;28;20044;-76
2021/07/07 00:16:05;;;;;;;8.13;4.60;;;22.70;68.30;;;;;;5051234;28;20165;-76
2021/07/07 00:18:31;;;;;;;9.82;4.90;;;22.60;68.70;;;;;;5069060;28;20024;-79
2021/07/07 00:20:57;;;;;;;5.68;3.75;;;22.60;69.00;;;;;;5069246;28;20029;-79
2021/07/07 00:23:24;;;;;;;6.50;4.38;;;22.50;69.40;;;;;;5069230;28;20801;-78
2021/07/07 00:25:50;;;;;;;4.65;4.00;;;22.50;69.50;;;;;;5069067;28;20028;-79
2021/07/07 00:28:16;;;;;;;4.47;4.03;;;22.60;69.70;;;;;;5051128;28;20481;-79
2021/07/07 00:30:42;;;;;;;5.90;4.47;;;22.60;69.80;;;;;;5069181;28;20020;-79
2021/07/07 00:33:08;;;;;;;5.80;4.10;;;22.50;69.80;;;;;;5069116;28;20029;-79
2021/07/07 00:35:33;;;;;;;4.80;4.13;;;22.60;69.80;;;;;;5050913;28;20433;-79
2021/07/07 00:37:59;;;;;;;13.75;4.70;;;22.50;69.90;;;;;;5068888;28;20017;-79
2021/07/07 00:40:25;;;;;;;8.40;4.30;;;22.50;70.40;;;;;;5068715;28;20078;-79
2021/07/07 00:42:51;;;;;;;4.90;4.40;;;22.50;70.60;;;;;;5051041;28;20032;-79
2021/07/07 00:45:17;;;;;;;6.25;4.60;;;22.50;70.60;;;;;;5068863;28;20028;-79
2021/07/07 00:47:45;;;;;;;6.70;5.15;;;22.50;70.70;;;;;;5050809;28;20020;-79
2021/07/07 00:50:11;;;;;;;7.15;4.90;;;22.50;70.80;;;;;;5068739;28;20025;-79
2021/07/07 00:52:37;;;;;;;6.78;5.03;;;22.50;71.00;;;;;;5050484;28;20033;-76
2021/07/07 00:55:05;;;;;;;5.78;4.88;;;22.50;71.10;;;;;;5068561;28;20413;-78
2021/07/07 00:57:34;;;;;;;7.25;4.80;;;22.50;71.10;;;;;;5050701;28;20017;-77
2021/07/07 01:00:03;;;;;;;6.78;4.30;;;22.50;71.20;;;;;;5068498;28;20029;-77
2021/07/07 01:02:29;;;;;;;6.90;4.55;;;22.50;71.30;;;;;;5051027;28;20041;-78
2021/07/07 01:04:54;;;;;;;5.70;4.15;;;22.50;71.30;;;;;;5050323;28;20022;-78
2021/07/07 01:07:20;;;;;;;12.35;4.57;;;22.50;71.30;;;;;;5068274;28;20028;-78
2021/07/07 01:09:46;;;;;;;5.75;4.60;;;22.40;72.00;;;;;;5068351;28;20396;-79
2021/07/07 01:12:11;;;;;;;12.63;4.90;;;22.40;71.60;;;;;;5050480;28;20390;-77
2021/07/07 01:14:37;;;;;;;5.82;4.70;;;22.30;72.00;;;;;;5068323;28;20098;-78
2021/07/07 01:17:03;;;;;;;6.82;4.75;;;22.30;72.10;;;;;;5050309;28;20261;-78
2021/07/07 01:19:29;;;;;;;13.93;5.60;;;22.30;72.60;;;;;;5050225;28;20051;-76
2021/07/07 01:21:54;;;;;;;10.95;5.50;;;22.30;71.90;;;;;;5050374;28;20529;-80
2021/07/07 01:24:21;;;;;;;8.60;5.28;;;22.30;72.10;;;;;;5068347;28;20405;-80
2021/07/07 01:26:47;;;;;;;10.82;5.00;;;22.30;71.80;;;;;;5068325;28;20100;-80
2021/07/07 01:29:14;;;;;;;5.50;4.40;;;22.30;71.80;;;;;;5068473;28;20032;-78
2021/07/07 01:31:41;;;;;;;13.02;5.68;;;22.30;71.70;;;;;;5068238;28;20021;-79
2021/07/07 01:34:07;;;;;;;12.13;5.20;;;22.30;71.50;;;;;;5050459;28;20051;-79
2021/07/07 01:36:34;;;;;;;12.23;5.53;;;22.30;71.50;;;;;;5068065;28;20044;-79
2021/07/07 01:39:02;;;;;;;11.32;5.20;;;22.30;71.50;;;;;;5068102;28;20024;-79
2021/07/07 01:41:28;;;;;;;10.18;4.65;;;22.30;71.60;;;;;;5050223;28;20485;-79
2021/07/07 01:43:53;;;;;;;6.28;4.75;;;22.20;71.60;;;;;;5050026;28;20035;-78
2021/07/07 01:46:19;;;;;;;8.20;4.75;;;22.20;71.80;;;;;;5050150;28;20029;-77
2021/07/07 01:48:45;;;;;;;11.35;4.93;;;22.10;72.10;;;;;;5050132;28;20025;-79
2021/07/07 01:51:10;;;;;;;11.00;5.65;;;22.00;72.10;;;;;;5050046;28;20077;-78
2021/07/07 01:53:36;;;;;;;14.35;5.72;;;22.00;72.30;;;;;;5049964;28;20041;-78
2021/07/07 01:56:02;;;;;;;12.70;5.05;;;22.00;72.00;;;;;;5050392;28;20443;-78
2021/07/07 01:58:27;;;;;;;11.38;5.47;;;22.10;71.90;;;;;;5067904;28;20466;-78
2021/07/07 02:00:53;;;;;;;7.78;5.32;;;22.10;71.90;;;;;;5049960;28;20024;-78
2021/07/07 02:03:19;;;;;;;14.80;5.90;;;22.10;72.30;;;;;;5049908;28;20036;-78
2021/07/07 02:05:45;;;;;;;11.70;5.38;;;22.10;71.70;;;;;;5049690;28;20504;-79
2021/07/07 02:08:12;;;;;;;10.80;5.38;;;22.20;70.90;;;;;;5071440;28;20036;-78
2021/07/07 02:10:38;;;;;;;9.20;5.43;;;22.20;71.20;;;;;;5071560;28;20028;-78
2021/07/07 02:13:09;;;;;;;11.55;5.38;;;22.20;71.10;;;;;;5071084;28;20101;-78
2021/07/07 02:15:36;;;;;;;10.75;5.28;;;22.30;70.80;;;;;;5053457;28;20375;-77
2021/07/07 02:18:03;;;;;;;7.35;4.97;;;22.30;70.80;;;;;;5053517;28;20514;-77
2021/07/07 02:20:32;;;;;;;14.05;6.50;;;22.40;70.50;;;;;;5071359;28;20547;-78
2021/07/07 02:22:58;;;;;;;10.45;5.13;;;22.50;70.10;;;;;;5053255;28;20021;-77
2021/07/07 02:25:28;;;;;;;11.32;5.72;;;22.60;69.70;;;;;;5071280;28;20035;-78
2021/07/07 02:27:54;;;;;;;10.23;6.05;;;22.70;69.40;;;;;;5053282;28;20044;-78
2021/07/07 02:30:24;;;;;;;7.32;4.95;;;22.70;69.00;;;;;;5071158;28;20505;-79
2021/07/07 02:32:51;;;;;;;8.80;5.55;;;22.80;68.50;;;;;;5061607;28;20036;-79
2021/07/07 02:35:20;;;;;;;15.35;5.35;;;22.80;68.40;;;;;;5033044;28;20358;-78
2021/07/07 02:37:49;;;;;;;8.13;4.82;;;22.90;68.20;;;;;;5033020;28;20064;-78
2021/07/07 02:40:17;;;;;;;14.82;5.75;;;22.90;68.30;;;;;;5051102;28;20099;-79
2021/07/07 02:42:44;;;;;;;13.95;5.70;;;23.00;68.00;;;;;;5032967;28;20461;-77
2021/07/07 02:45:11;;;;;;;10.52;5.47;;;22.90;68.70;;;;;;5051015;28;20537;-76
2021/07/07 02:47:38;;;;;;;11.18;5.45;;;22.90;68.30;;;;;;5032891;28;20057;-78
2021/07/07 02:50:05;;;;;;;10.60;5.50;;;22.80;68.40;;;;;;5050682;28;20043;-78
2021/07/07 02:52:30;;;;;;;9.00;4.85;;;22.80;68.80;;;;;;5032682;28;20033;-79
2021/07/07 02:54:56;;;;;;;11.00;5.65;;;22.70;69.30;;;;;;5050418;28;20152;-77
2021/07/07 02:57:22;;;;;;;10.32;5.85;;;22.50;69.70;;;;;;5050520;28;20501;-78
2021/07/07 02:59:47;;;;;;;6.90;4.70;;;22.40;70.40;;;;;;5032729;28;20040;-78
2021/07/07 03:02:13;;;;;;;13.10;5.22;;;22.30;70.90;;;;;;5050425;28;20107;-77
2021/07/07 03:04:39;;;;;;;8.63;5.20;;;22.20;71.50;;;;;;5050472;28;20401;-77
2021/07/07 03:07:05;;;;;;;8.52;4.22;;;22.10;71.70;;;;;;5050302;28;20044;-77
2021/07/07 03:09:31;;;;;;;18.10;7.85;;;22.00;72.00;;;;;;5032553;28;20058;-76
2021/07/07 03:11:56;;;;;;;8.43;5.40;;;22.00;72.40;;;;;;5050246;28;20024;-78
2021/07/07 03:14:22;;;;;;;8.20;4.47;;;22.00;72.30;;;;;;5050095;28;20037;-77
2021/07/07 03:16:48;;;;;;;6.72;5.18;;;22.00;72.50;;;;;;5050264;28;20395;-79
2021/07/07 03:19:13;;;;;;;6.40;4.75;;;21.90;72.60;;;;;;5049129;28;20044;-79
2021/07/07 03:21:39;;;;;;;11.48;5.68;;;22.00;72.90;;;;;;5050309;28;20029;-80
2021/07/07 03:24:05;;;;;;;11.25;6.57;;;21.90;72.80;;;;;;5050313;28;20598;-77
2021/07/07 03:26:31;;;;;;;9.82;5.15;;;21.90;73.70;;;;;;5032008;28;20025;-78
2021/07/07 03:28:57;;;;;;;9.20;5.10;;;21.90;73.20;;;;;;5050112;28;20090;-77
2021/07/07 03:31:23;;;;;;;7.80;4.90;;;21.90;73.30;;;;;;5049986;28;20039;-78
2021/07/07 03:33:49;;;;;;;7.25;5.25;;;21.90;73.20;;;;;;5049798;28;20037;-77
2021/07/07 03:36:14;;;;;;;6.93;5.30;;;21.90;73.20;;;;;;5049759;28;20506;-77
2021/07/07 03:38:40;;;;;;;8.57;4.75;;;22.00;73.20;;;;;;5049785;28;20029;-78
2021/07/07 03:41:06;;;;;;;7.07;5.13;;;22.00;73.00;;;;;;5049716;28;20116;-78
2021/07/07 03:43:31;;;;;;;6.10;4.50;;;22.10;72.90;;;;;;5049576;28;20099;-78
2021/07/07 03:45:57;;;;;;;11.50;4.50;;;22.20;72.50;;;;;;5049504;28;20462;-77
2021/07/07 03:48:23;;;;;;;8.35;4.63;;;22.20;72.30;;;;;;5032231;28;20533;-78
2021/07/07 03:50:48;;;;;;;11.82;4.55;;;22.30;72.00;;;;;;5031719;28;20033;-78
2021/07/07 03:53:14;;;;;;;7.72;5.25;;;22.40;72.00;;;;;;5049315;28;20405;-78
2021/07/07 03:55:40;;;;;;;6.82;4.35;;;22.50;71.50;;;;;;5049286;28;20029;-78
2021/07/07 03:58:05;;;;;;;6.65;4.68;;;22.60;71.50;;;;;;5048073;28;20405;-78
2021/07/07 04:00:32;;;;;;;9.48;5.03;;;22.60;71.60;;;;;;5047982;28;20029;-78
2021/07/07 04:02:59;;;;;;;6.80;4.80;;;22.70;71.60;;;;;;5048021;28;20477;-78
2021/07/07 04:05:25;;;;;;;8.90;5.18;;;22.80;71.70;;;;;;5049364;28;20037;-78
2021/07/07 04:07:52;;;;;;;10.73;5.60;;;22.90;71.20;;;;;;5049230;28;20032;-77
2021/07/07 04:10:18;;;;;;;9.52;5.43;;;23.10;70.60;;;;;;5049085;28;20024;-78
2021/07/07 04:12:44;;;;;;;6.30;5.00;;;23.40;69.90;;;;;;5049000;28;20041;-77
2021/07/07 04:15:12;;;;;;;7.72;4.82;;;23.70;68.90;;;;;;5048054;28;20041;-77
2021/07/07 04:17:37;;;;;;;14.93;4.18;;;23.90;68.20;;;;;;5049074;28;20075;-78
2021/07/07 04:20:07;;;;;;;7.45;4.78;;;24.00;67.50;;;;;;5049143;28;20033;-78
2021/07/07 04:22:33;;;;;;;5.35;4.38;;;24.10;67.50;;;;;;5048838;28;20029;-77
2021/07/07 04:24:58;;;;;;;7.43;4.80;;;24.20;67.30;;;;;;5048649;28;20379;-77
2021/07/07 04:27:24;;;;;;;9.88;4.75;;;24.30;67.20;;;;;;5048854;28;20029;-78
2021/07/07 04:29:50;;;;;;;8.93;5.00;;;24.40;67.30;;;;;;5048521;28;20017;-77
2021/07/07 04:32:18;;;;;;;8.25;4.90;;;24.40;67.30;;;;;;5048267;28;20756;-77
2021/07/07 04:34:45;;;;;;;5.95;4.47;;;24.50;67.20;;;;;;5047402;28;20044;-77
2021/07/07 04:37:11;;;;;;;6.10;4.30;;;24.70;66.90;;;;;;5047265;28;20422;-78
2021/07/07 04:39:37;;;;;;;11.90;4.78;;;24.70;66.40;;;;;;5048639;28;20044;-77
2021/07/07 04:42:03;;;;;;;6.80;4.35;;;24.90;66.50;;;;;;5050288;28;20017;-78
2021/07/07 04:44:29;;;;;;;8.27;4.53;;;25.00;66.60;;;;;;5068659;28;20059;-76
2021/07/07 04:46:54;;;;;;;11.15;4.18;;;25.10;66.50;;;;;;5068664;28;20107;-79
2021/07/07 04:49:20;;;;;;;7.70;4.22;;;25.30;65.90;;;;;;5050453;28;20166;-77
2021/07/07 04:51:45;;;;;;;9.88;4.35;;;25.30;66.20;;;;;;5050922;28;20024;-79
2021/07/07 04:54:11;;;;;;;6.90;4.88;;;25.50;66.70;;;;;;5068462;28;20091;-77
2021/07/07 04:56:37;;;;;;;10.25;4.03;;;25.60;65.70;;;;;;5055163;28;20029;-78
2021/07/07 04:59:02;;;;;;;10.48;4.70;;;25.70;64.70;;;;;;5050420;28;20434;-85
2021/07/07 05:01:28;;;;;;;8.20;5.00;;;25.90;64.60;;;;;;5050434;28;20024;-84
2021/07/07 05:03:54;;;;;;;7.68;4.90;;;26.00;64.80;;;;;;5049609;28;20036;-86
2021/07/07 05:06:19;;;;;;;7.00;4.25;;;26.10;64.50;;;;;;5050511;28;20059;-85
2021/07/07 05:08:45;;;;;;;7.63;4.55;;;26.30;64.10;;;;;;5052845;28;20075;-86
2021/07/07 05:11:11;;;;;;;8.82;4.30;;;26.40;64.00;;;;;;5052856;28;20024;-85
2021/07/07 05:13:37;;;;;;;8.18;4.50;;;26.60;63.40;;;;;;5070283;28;20033;-85
2021/07/07 05:16:03;;;;;;;7.68;4.60;;;26.70;62.60;;;;;;5051791;28;20024;-85
2021/07/07 05:18:30;;;;;;;7.18;4.68;;;26.90;60.60;;;;;;5050387;28;20032;-86
2021/07/07 05:20:55;;;;;;;8.10;4.57;;;27.20;58.60;;;;;;5068798;28;20485;-84
2021/07/07 05:23:21;;;;;;;8.98;4.65;;;27.40;56.90;;;;;;5052076;28;20039;-84
2021/07/07 05:25:47;;;;;;;6.55;4.05;;;27.60;55.70;;;;;;5070406;28;20032;-84
2021/07/07 05:28:13;;;;;;;10.55;5.47;;;27.70;55.30;;;;;;5069690;28;20024;-86
2021/07/07 05:30:39;;;;;;;9.32;3.92;;;27.80;54.80;;;;;;5070133;28;20561;-84
2021/07/07 05:33:07;;;;;;;5.30;3.75;;;28.00;54.00;;;;;;5052223;28;20051;-85
2021/07/07 05:35:32;;;;;;;7.82;3.55;;;28.00;53.00;;;;;;5052660;28;20052;-86
2021/07/07 05:37:58;;;;;;;9.00;3.20;;;28.10;52.80;;;;;;5052396;28;20025;-85
2021/07/07 05:40:24;;;;;;;11.02;3.65;;;28.10;52.00;;;;;;5070161;28;20115;-85
2021/07/07 05:42:53;;;;;;;5.65;3.92;;;28.30;52.20;;;;;;5055974;28;20500;-85
2021/07/07 05:45:21;;;;;;;5.70;3.38;;;28.40;52.20;;;;;;5057198;28;20047;-85
2021/07/07 05:47:47;;;;;;;9.43;4.28;;;28.50;51.60;;;;;;5074857;28;20486;-85
2021/07/07 05:50:14;;;;;;;8.85;3.97;;;28.80;51.50;;;;;;5057392;28;20063;-85
2021/07/07 05:52:39;;;;;;;6.78;3.95;;;29.10;50.30;;;;;;5056834;28;20036;-85
2021/07/07 05:55:06;;;;;;;9.50;3.35;;;29.60;49.50;;;;;;5057232;28;20044;-86
2021/07/07 05:57:37;;;;;;;7.15;3.65;;;30.10;48.90;;;;;;5056646;28;20035;-86
2021/07/07 06:00:13;;;;;;;4.95;3.50;;;31.00;46.80;;;;;;5057151;28;20032;-87
2021/07/07 06:02:39;;;;;;;8.88;3.17;;;32.30;43.10;;;;;;5057025;28;20024;-86
2021/07/07 06:05:07;;;;;;;3.78;3.22;;;33.30;41.40;;;;;;5057082;28;20238;-85
2021/07/07 06:07:34;;;;;;;8.55;3.25;;;34.40;40.10;;;;;;5057310;28;20032;-87
2021/07/07 06:09:59;;;;;;;9.70;3.28;;;35.60;37.80;;;;;;5056620;28;20028;-87
2021/07/07 06:12:25;;;;;;;7.00;3.13;;;36.50;36.20;;;;;;5056736;28;20025;-84
2021/07/07 06:14:51;;;;;;;10.55;3.50;;;37.70;34.90;;;;;;5056487;28;20029;-87
2021/07/07 06:17:16;;;;;;;12.85;3.85;;;38.10;33.30;;;;;;5056302;28;20029;-87
2021/07/07 06:19:42;;;;;;;10.93;3.30;;;38.80;31.90;;;;;;5056971;28;20090;-86
2021/07/07 06:22:08;;;;;;;9.18;3.42;;;39.00;32.00;;;;;;5057121;28;20077;-86
2021/07/07 06:24:33;;;;;;;6.28;3.00;;;39.40;30.70;;;;;;5056475;28;20037;-86
2021/07/07 06:26:59;;;;;;;5.85;3.55;;;39.60;30.50;;;;;;5056810;28;20032;-86
2021/07/07 06:29:25;;;;;;;4.72;2.85;;;39.50;30.30;;;;;;5056595;28;20441;-87
2021/07/07 06:31:50;;;;;;;10.10;2.88;;;39.70;30.20;;;;;;5056108;28;20024;-88
2021/07/07 06:34:16;;;;;;;4.47;3.65;;;40.00;30.20;;;;;;5056457;28;20039;-87
2021/07/07 06:36:42;;;;;;;5.70;3.15;;;40.40;28.90;;;;;;5056316;28;20044;-87
2021/07/07 06:39:07;;;;;;;5.88;3.40;;;40.50;29.20;;;;;;5056029;28;20463;-87
2021/07/07 06:41:34;;;;;;;5.40;2.92;;;40.40;29.10;;;;;;5074053;28;20024;-85
2021/07/07 06:44:00;;;;;;;7.07;3.15;;;40.70;28.80;;;;;;5055636;28;20116;-87
2021/07/07 06:46:25;;;;;;;5.57;3.22;;;40.50;29.20;;;;;;5056145;28;20127;-87
2021/07/07 06:48:51;;;;;;;4.38;3.63;;;40.20;29.10;;;;;;5055857;28;20021;-86
2021/07/07 06:51:17;;;;;;;8.68;3.30;;;40.60;29.50;;;;;;5073748;28;20033;-86
2021/07/07 06:53:42;;;;;;;9.60;3.50;;;40.50;28.80;;;;;;5055767;28;20036;-86
2021/07/07 06:56:08;;;;;;;10.23;3.50;;;40.10;28.90;;;;;;5073554;28;20021;-87
2021/07/07 06:58:34;;;;;;;4.72;2.97;;;40.10;29.40;;;;;;5055544;28;20028;-88
2021/07/07 07:01:00;;;;;;;6.65;2.70;;;40.20;28.70;;;;;;5056138;28;20050;-88
2021/07/07 07:03:25;;;;;;;4.30;3.28;;;40.30;29.00;;;;;;5056141;28;20024;-87
2021/07/07 07:05:51;;;;;;;3.00;2.70;;;40.60;28.90;;;;;;5055637;28;20021;-87
2021/07/07 07:08:18;;;;;;;7.20;3.33;;;40.50;28.50;;;;;;5055547;28;20496;-87
2021/07/07 07:10:45;;;;;;;4.50;3.30;;;40.20;28.60;;;;;;5056181;28;20440;-86
2021/07/07 07:13:11;;;;;;;8.52;2.92;;;40.00;29.00;;;;;;5055531;28;20405;-88
2021/07/07 07:15:37;;;;;;;4.18;2.85;;;39.80;29.00;;;;;;5055671;28;20024;-88
2021/07/07 07:18:03;;;;;;;6.60;2.58;;;40.00;29.20;;;;;;5055607;28;20395;-87
2021/07/07 07:20:29;;;;;;;3.80;3.00;;;39.50;29.50;;;;;;5054998;28;20098;-86
2021/07/07 07:23:00;;;;;;;4.55;3.70;;;39.60;29.40;;;;;;5054906;28;20024;-87
2021/07/07 07:25:26;;;;;;;6.97;3.35;;;40.20;28.80;;;;;;5055306;28;20024;-85
2021/07/07 07:27:53;;;;;;;5.63;3.25;;;40.20;29.10;;;;;;5055481;28;20496;-86
2021/07/07 07:30:19;;;;;;;4.22;3.08;;;40.00;29.20;;;;;;5055105;28;20026;-86
2021/07/07 07:32:47;;;;;;;10.10;3.15;;;40.20;28.80;;;;;;5072800;28;20074;-87
2021/07/07 07:35:15;;;;;;;4.85;3.03;;;40.20;28.40;;;;;;5055339;28;20048;-86
2021/07/07 07:37:47;;;;;;;4.30;2.83;;;39.90;29.30;;;;;;5054660;28;20035;-87
2021/07/07 07:40:13;;;;;;;7.10;3.45;;;39.60;29.90;;;;;;5055091;28;20632;-87
2021/07/07 07:42:43;;;;;;;10.35;3.22;;;39.90;29.30;;;;;;5054788;28;20024;-87
2021/07/07 07:45:11;;;;;;;9.70;3.08;;;40.00;29.80;;;;;;5054695;28;20028;-87
2021/07/07 07:47:36;;;;;;;8.32;3.10;;;40.40;29.60;;;;;;5054345;28;20071;-86
2021/07/07 07:50:04;;;;;;;4.43;3.20;;;40.70;29.00;;;;;;5054648;28;20426;-87
2021/07/07 07:52:30;;;;;;;5.95;3.28;;;40.70;28.40;;;;;;5054678;28;20032;-87
2021/07/07 07:54:56;;;;;;;5.60;3.15;;;40.60;28.50;;;;;;5055030;28;20082;-87
2021/07/07 07:57:22;;;;;;;4.72;3.00;;;40.20;29.10;;;;;;5054930;28;20028;-88
2021/07/07 07:59:47;;;;;;;7.00;3.00;;;39.70;29.60;;;;;;5072252;28;20021;-86
2021/07/07 08:02:13;;;;;;;5.22;2.85;;;39.40;29.40;;;;;;5054195;28;20421;-86
2021/07/07 08:04:38;;;;;;;8.00;3.47;;;39.60;29.40;;;;;;5054042;28;20089;-86
2021/07/07 08:07:04;;;;;;;3.42;2.97;;;39.40;30.30;;;;;;5054087;28;20127;-86
2021/07/07 08:09:30;;;;;;;5.97;2.92;;;39.10;29.50;;;;;;5054077;28;20032;-87
2021/07/07 08:11:55;;;;;;;4.05;3.05;;;38.90;29.60;;;;;;5072351;28;20489;-87
2021/07/07 08:14:21;;;;;;;5.18;2.80;;;38.80;29.60;;;;;;5054185;28;20032;-87
2021/07/07 08:16:49;;;;;;;5.80;3.38;;;38.70;30.20;;;;;;5054065;28;20052;-86
2021/07/07 08:19:14;;;;;;;4.28;3.00;;;38.90;30.00;;;;;;5054254;28;20496;-87
2021/07/07 08:21:40;;;;;;;6.93;3.38;;;38.80;30.50;;;;;;5054224;28;20130;-87
2021/07/07 08:24:06;;;;;;;7.22;3.45;;;38.80;31.20;;;;;;5053975;28;20512;-86
2021/07/07 08:26:32;;;;;;;3.70;3.40;;;38.50;31.30;;;;;;5054338;28;20027;-86
2021/07/07 08:28:58;;;;;;;7.88;3.75;;;38.70;31.00;;;;;;5053857;28;20032;-86
2021/07/07 08:31:27;;;;;;;6.15;4.00;;;38.60;30.90;;;;;;5053909;28;20098;-87
2021/07/07 08:33:54;;;;;;;8.32;3.33;;;38.70;30.80;;;;;;5054231;28;20109;-86
2021/07/07 08:36:22;;;;;;;5.45;3.53;;;38.60;31.00;;;;;;5050390;28;20053;-86
2021/07/07 08:38:49;;;;;;;10.25;3.42;;;38.30;30.90;;;;;;5050541;28;20029;-85
2021/07/07 08:41:15;;;;;;;6.30;3.22;;;38.20;30.80;;;;;;5050922;28;20060;-87
2021/07/07 08:43:43;;;;;;;7.60;3.50;;;37.90;31.00;;;;;;5050096;28;20478;-86
2021/07/07 08:46:09;;;;;;;3.80;3.15;;;38.40;32.50;;;;;;5050781;28;20059;-86
2021/07/07 08:48:35;;;;;;;7.07;3.47;;;38.80;31.30;;;;;;5051517;28;20037;-86
2021/07/07 08:51:03;;;;;;;6.90;3.22;;;39.40;31.20;;;;;;5048856;28;20025;-87
2021/07/07 08:53:30;;;;;;;7.82;3.17;;;39.70;30.20;;;;;;5049920;28;20032;-86
2021/07/07 08:55:55;;;;;;;6.03;2.90;;;39.80;29.90;;;;;;5050004;28;20074;-86
2021/07/07 08:58:21;;;;;;;8.30;3.28;;;40.00;29.60;;;;;;5050001;28;20028;-87
2021/07/07 09:00:50;;;;;;;6.28;3.20;;;40.00;29.20;;;;;;5050123;28;20104;-85
2021/07/07 09:03:17;;;;;;;3.80;2.85;;;39.90;29.00;;;;;;5049857;28;20040;-87
2021/07/07 09:06:05;;;;;;;5.28;2.30;;;39.90;28.90;;;;;;5050081;28;20501;-86
2021/07/07 09:08:36;;;;;;;5.38;2.65;;;40.10;28.50;;;;;;5050346;28;20021;-85
2021/07/07 09:11:17;;;;;;;11.98;2.78;;;39.80;29.00;;;;;;5049973;28;20025;-86
2021/07/07 09:13:45;;;;;;;9.68;3.42;;;39.40;28.20;;;;;;5049802;28;20091;-85
2021/07/07 09:16:13;;;;;;;4.68;3.33;;;39.40;29.20;;;;;;5051061;28;20079;-86
2021/07/07 09:18:39;;;;;;;4.32;2.75;;;39.40;29.30;;;;;;5054041;28;20033;-86
2021/07/07 09:21:28;;;;;;;9.77;2.60;;;39.30;29.10;;;;;;5053820;28;20055;-87
2021/07/07 09:23:59;;;;;;;7.60;2.97;;;39.30;28.60;;;;;;5054041;28;20567;-86
2021/07/07 09:26:33;;;;;;;5.63;3.17;;;39.00;28.90;;;;;;5053753;28;20091;-86
2021/07/07 09:29:00;;;;;;;8.27;2.50;;;39.20;29.50;;;;;;5053843;28;20053;-86
2021/07/07 09:31:35;;;;;;;7.95;2.63;;;39.40;29.10;;;;;;5055167;28;20033;-86
2021/07/07 09:34:19;;;;;;;9.50;3.17;;;39.10;28.40;;;;;;5053408;28;20040;-85
2021/07/07 09:36:48;;;;;;;7.93;2.93;;;39.10;28.90;;;;;;5053553;28;20052;-86
2021/07/07 09:39:15;;;;;;;5.68;2.97;;;39.60;29.10;;;;;;5054240;28;20358;-86
2021/07/07 09:41:41;;;;;;;8.52;2.38;;;39.50;29.10;;;;;;5053504;28;20021;-87
2021/07/07 09:44:07;;;;;;;4.90;2.33;;;39.20;28.20;;;;;;5052217;28;20083;-84
2021/07/07 09:46:35;;;;;;;5.50;2.45;;;39.30;28.10;;;;;;5053660;28;20029;-86
2021/07/07 09:49:02;;;;;;;2.58;2.03;;;39.00;28.60;;;;;;5054738;28;20025;-85
2021/07/07 09:51:27;;;;;;;5.20;2.17;;;38.60;28.50;;;;;;5054712;28;20032;-86
2021/07/07 09:53:53;;;;;;;6.80;2.40;;;38.70;28.60;;;;;;5053985;28;20041;-84
2021/07/07 09:56:19;;;;;;;4.60;1.92;;;39.20;28.90;;;;;;5052926;28;20103;-85
2021/07/07 09:58:45;;;;;;;12.25;2.20;;;39.70;28.50;;;;;;5052420;28;20072;-85
2021/07/07 10:01:10;;;;;;;5.72;2.33;;;40.10;28.10;;;;;;5052179;28;20120;-85
2021/07/07 10:03:36;;;;;;;8.45;2.60;;;40.50;27.20;;;;;;5052474;28;20029;-85
2021/07/07 10:06:03;;;;;;;5.32;1.50;;;40.70;26.30;;;;;;5052780;28;20525;-84
2021/07/07 10:08:30;;;;;;;4.43;2.17;;;40.30;26.90;;;;;;5052169;28;20163;-84
2021/07/07 10:10:58;;;;;;;4.75;2.03;;;39.70;27.40;;;;;;5052412;28;20534;-85
2021/07/07 10:13:26;;;;;;;11.98;2.53;;;39.30;28.10;;;;;;5051206;28;20033;-86
2021/07/07 10:15:53;;;;;;;3.55;2.50;;;38.70;29.10;;;;;;5051428;28;20031;-85
2021/07/07 10:18:19;;;;;;;2.15;1.95;;;38.50;29.30;;;;;;5053814;28;20029;-86
2021/07/07 10:20:45;;;;;;;7.30;2.65;;;38.00;29.20;;;;;;5053942;28;20620;-84
2021/07/07 10:23:13;;;;;;;5.72;2.28;;;37.50;29.80;;;;;;5053130;28;20075;-84
2021/07/07 10:25:39;;;;;;;4.93;1.92;;;37.20;30.50;;;;;;5050957;28;20086;-84
2021/07/07 10:28:13;;;;;;;3.95;2.58;;;37.00;30.60;;;;;;5050303;28;20064;-85
2021/07/07 10:30:50;;;;;;;7.18;2.50;;;36.80;30.60;;;;;;5051396;28;20056;-82
2021/07/07 10:33:16;;;;;;;6.30;2.47;;;36.50;30.90;;;;;;5050180;28;20029;-82
2021/07/07 10:35:42;;;;;;;7.15;2.83;;;35.80;31.60;;;;;;5058602;28;20105;-84
2021/07/07 10:38:08;;;;;;;3.90;2.70;;;35.70;32.80;;;;;;5054411;28;20028;-84
2021/07/07 10:40:38;;;;;;;2.90;2.28;;;35.70;33.40;;;;;;5054058;28;20036;-84
2021/07/07 10:43:05;;;;;;;4.80;2.22;;;35.60;33.10;;;;;;5071690;28;20643;-85
2021/07/07 10:45:40;;;;;;;6.25;2.30;;;35.50;33.10;;;;;;5053560;28;20029;-84
2021/07/07 10:48:35;;;;;;;5.07;2.50;;;35.50;33.60;;;;;;5055211;28;20039;-85
2021/07/07 10:51:26;;;;;;;3.10;2.63;;;35.30;33.50;;;;;;5029102;28;20040;-84
2021/07/07 10:53:53;;;;;;;13.38;2.83;;;34.90;34.80;;;;;;5055175;28;20413;-85
2021/07/07 10:56:43;;;;;;;5.60;2.58;;;34.60;34.60;;;;;;5072799;28;20024;-85
2021/07/07 10:59:31;;;;;;;4.43;2.40;;;34.50;34.80;;;;;;5054670;28;20024;-83
2021/07/07 11:02:15;;;;;;;11.55;2.55;;;34.40;35.30;;;;;;5054946;28;20360;-84
2021/07/07 11:04:42;;;;;;;4.80;2.17;;;34.50;35.00;;;;;;5055264;28;20032;-84
2021/07/07 11:07:43;;;;;;;7.10;1.92;;;34.60;34.40;;;;;;5053828;28;20041;-83
2021/07/07 11:10:14;;;;;;;5.22;2.20;;;34.60;34.70;;;;;;4970610;28;20432;-84
2021/07/07 11:12:40;;;;;;;11.35;2.20;;;34.70;34.80;;;;;;5052882;28;20063;-85
2021/07/07 11:15:16;;;;;;;3.22;2.35;;;34.50;34.00;;;;;;5053196;28;20032;-85
2021/07/07 11:17:46;;;;;;;7.68;2.75;;;34.30;34.80;;;;;;5052583;28;20029;-84
2021/07/07 11:20:14;;;;;;;5.88;1.95;;;34.30;35.20;;;;;;5052652;28;20025;-84
2021/07/07 11:23:00;;;;;;;3.88;2.45;;;34.20;35.60;;;;;;5054126;28;20055;-84
2021/07/07 11:25:28;;;;;;;4.57;2.42;;;34.20;35.30;;;;;;5053288;28;20085;-85
2021/07/07 11:27:56;;;;;;;3.17;2.28;;;33.80;35.20;;;;;;5053173;28;20040;-84
2021/07/07 11:30:22;;;;;;;7.55;2.20;;;33.60;36.00;;;;;;5053598;28;20606;-84
2021/07/07 11:32:50;;;;;;;15.55;2.90;;;33.50;35.90;;;;;;5054154;28;20094;-85
2021/07/07 11:35:37;;;;;;;2.28;1.95;;;33.60;35.40;;;;;;5054165;28;20048;-82
2021/07/07 11:38:05;;;;;;;2.63;2.03;;;33.80;34.50;;;;;;5070144;28;20032;-83
2021/07/07 11:40:34;;;;;;;10.50;2.72;;;33.60;35.20;;;;;;5052161;28;20036;-85
2021/07/07 11:43:08;;;;;;;14.90;2.72;;;33.50;35.70;;;;;;5071078;28;20028;-85
2021/07/07 11:45:42;;;;;;;6.15;2.28;;;33.50;35.50;;;;;;5053000;28;20032;-84
2021/07/07 11:48:19;;;;;;;6.82;2.63;;;33.80;36.30;;;;;;5070656;28;20017;-83
2021/07/07 11:50:56;;;;;;;4.03;2.38;;;34.00;36.40;;;;;;5053084;28;20029;-84
2021/07/07 11:53:22;;;;;;;4.28;2.45;;;34.20;35.50;;;;;;5052073;28;20036;-84
2021/07/07 11:55:51;;;;;;;5.07;2.38;;;34.40;35.90;;;;;;5070092;28;20051;-85
2021/07/07 11:58:22;;;;;;;5.03;2.42;;;34.30;34.30;;;;;;5052373;28;20470;-84
2021/07/07 12:00:48;;;;;;;9.30;3.05;;;34.20;35.10;;;;;;5069819;28;20021;-84
2021/07/07 12:03:16;;;;;;;3.75;1.77;;;34.10;34.10;;;;;;5052636;28;20025;-85
2021/07/07 12:05:56;;;;;;;5.50;2.60;;;34.00;34.60;;;;;;5052679;28;20119;-83
2021/07/07 12:08:24;;;;;;;2.72;2.20;;;34.20;34.20;;;;;;5053788;28;20025;-84
2021/07/07 12:10:52;;;;;;;5.15;2.78;;;34.20;34.60;;;;;;5069495;28;20020;-83
2021/07/07 12:13:30;;;;;;;9.13;2.45;;;34.20;34.40;;;;;;5069670;28;20066;-83
2021/07/07 12:16:36;;;;;;;3.33;2.22;;;34.50;34.70;;;;;;5069443;28;20832;-83
2021/07/07 12:19:13;;;;;;;11.15;2.50;;;34.30;34.10;;;;;;4969070;28;20023;-83
2021/07/07 12:21:44;;;;;;;4.80;2.10;;;34.30;34.70;;;;;;4970414;28;20038;-85
2021/07/07 12:24:31;;;;;;;6.32;2.25;;;34.20;34.50;;;;;;5028971;28;20432;-84
2021/07/07 12:27:00;;;;;;;7.38;2.40;;;34.20;34.20;;;;;;5051271;28;20056;-84
2021/07/07 12:29:30;;;;;;;2.90;2.05;;;34.20;33.90;;;;;;5051604;28;20054;-84
2021/07/07 12:32:04;;;;;;;3.70;1.98;;;34.20;34.30;;;;;;5052577;28;20029;-85
2021/07/07 12:34:36;;;;;;;3.30;2.00;;;34.20;34.70;;;;;;5051238;28;20059;-84
2021/07/07 12:37:05;;;;;;;9.98;2.45;;;34.40;34.30;;;;;;5051089;28;20293;-84
2021/07/07 12:39:35;;;;;;;11.63;2.55;;;34.60;33.90;;;;;;5051494;28;20032;-83
2021/07/07 12:42:17;;;;;;;4.32;2.30;;;34.60;33.70;;;;;;5050950;28;20098;-84
2021/07/07 12:44:43;;;;;;;6.47;2.72;;;34.60;33.00;;;;;;5051745;28;20512;-84
2021/07/07 12:47:08;;;;;;;5.07;1.90;;;34.40;33.80;;;;;;5052931;28;20040;-84
2021/07/07 12:49:50;;;;;;;4.20;2.03;;;34.40;33.90;;;;;;5052723;28;20024;-84